createdAt,value
2023-05-10T00:00:01.232Z,23.0
2023-05-10T00:05:00.979Z,23.0
2023-05-10T00:10:01.043Z,23.0
2023-05-10T00:15:01.565Z,23.0
2023-05-10T00:20:01.315Z,23.0
2023-05-10T00:25:00.989Z,23.0
2023-05-10T00:30:02.317Z,23.0
2023-05-10T00:35:01.288Z,23.0
2023-05-10T00:40:01.031Z,23.0
2023-05-10T00:45:01.289Z,22.9
2023-05-10T00:50:01.557Z,22.9
2023-05-10T00:55:01.254Z,22.9
2023-05-10T01:00:02.471Z,22.9
2023-05-10T01:05:01.064Z,22.9
2023-05-10T01:10:01.981Z,22.8
2023-05-10T01:15:02.088Z,22.8
2023-05-10T01:20:01.291Z,22.8
2023-05-10T01:25:01.009Z,22.8
2023-05-10T01:30:14.595Z,22.8
2023-05-10T01:35:01.597Z,22.7
2023-05-10T01:40:01.275Z,22.7
2023-05-10T01:45:01.192Z,22.7
2023-05-10T01:50:01.006Z,22.6
2023-05-10T01:55:01.051Z,22.6
2023-05-10T02:00:01.261Z,22.6
2023-05-10T02:05:01.319Z,22.5
2023-05-10T02:10:01.235Z,22.5
2023-05-10T02:15:01.326Z,22.5
2023-05-10T02:20:01.098Z,22.5
2023-05-10T02:25:01.528Z,22.5
2023-05-10T02:30:01.534Z,22.5
2023-05-10T02:35:01.253Z,22.5
2023-05-10T02:40:00.987Z,22.4
2023-05-10T02:45:02.488Z,22.4
2023-05-10T02:50:01.173Z,22.4
2023-05-10T02:55:01.276Z,22.4
2023-05-10T03:00:01.027Z,22.3
2023-05-10T03:05:01.112Z,22.3
2023-05-10T03:10:01.053Z,22.3
2023-05-10T03:15:01.098Z,22.3
2023-05-10T03:20:01.027Z,22.2
2023-05-10T03:25:01.818Z,22.2
2023-05-10T03:30:01.210Z,22.3
2023-05-10T03:35:01.123Z,22.2
2023-05-10T03:40:01.238Z,22.2
2023-05-10T03:45:01.240Z,22.2
2023-05-10T03:50:01.025Z,22.2
2023-05-10T03:55:01.555Z,22.2
2023-05-10T04:00:02.102Z,22.1
2023-05-10T04:05:01.303Z,22.2
2023-05-10T04:10:02.309Z,22.2
2023-05-10T04:15:01.339Z,22.2
2023-05-10T04:20:01.059Z,22.2
2023-05-10T04:25:01.461Z,22.1
2023-05-10T04:30:01.273Z,22.2
2023-05-10T04:35:01.332Z,22.1
2023-05-10T04:40:01.125Z,22.1
2023-05-10T04:45:01.450Z,22.1
2023-05-10T04:50:01.212Z,22.1
2023-05-10T04:55:01.196Z,22.1
2023-05-10T05:00:01.220Z,22.1
2023-05-10T05:05:01.237Z,22.1
2023-05-10T05:10:01.001Z,22.2
2023-05-10T05:15:01.306Z,22.1
2023-05-10T05:20:01.023Z,22.1
2023-05-10T05:25:01.327Z,22.2
2023-05-10T05:30:00.992Z,22.1
2023-05-10T05:35:01.540Z,22.2
2023-05-10T05:40:01.015Z,22.2
2023-05-10T05:45:01.271Z,22.2
2023-05-10T05:50:01.470Z,22.2
2023-05-10T05:55:01.338Z,22.2
2023-05-10T06:00:01.045Z,22.2
2023-05-10T06:05:01.266Z,22.2
2023-05-10T06:10:01.286Z,22.2
2023-05-10T06:15:03.238Z,22.2
2023-05-10T06:20:03.288Z,22.2
2023-05-10T06:25:01.068Z,22.2
2023-05-10T06:30:09.482Z,22.2
2023-05-10T06:35:01.144Z,22.2
2023-05-10T06:40:03.170Z,22.3
2023-05-10T06:45:01.453Z,22.3
2023-05-10T06:50:01.062Z,22.2
2023-05-10T06:55:01.050Z,22.3
2023-05-10T07:00:01.064Z,22.3
2023-05-10T07:05:03.043Z,22.3
2023-05-10T07:10:00.503Z,22.3
2023-05-10T07:15:01.056Z,22.3
2023-05-10T07:20:01.073Z,22.3
2023-05-10T07:25:01.027Z,22.3
2023-05-10T07:30:01.023Z,22.2
2023-05-10T07:35:01.063Z,22.2
2023-05-10T07:40:01.085Z,22.2
2023-05-10T07:45:01.002Z,22.2
2023-05-10T07:50:01.135Z,22.2
2023-05-10T07:55:01.312Z,22.2
2023-05-10T08:00:01.372Z,22.3
2023-05-10T08:05:01.006Z,22.3
2023-05-10T08:10:01.291Z,22.3
2023-05-10T08:15:01.785Z,22.3
2023-05-10T08:20:01.346Z,22.4
2023-05-10T08:25:01.029Z,22.4
2023-05-10T08:30:01.020Z,22.4
2023-05-10T08:35:02.156Z,22.4
2023-05-10T08:40:01.328Z,22.5
2023-05-10T08:45:01.304Z,22.5
2023-05-10T08:50:01.073Z,22.5
2023-05-10T08:55:01.006Z,22.5
2023-05-10T09:00:01.930Z,22.5
2023-05-10T09:05:01.421Z,22.6
2023-05-10T09:10:01.068Z,22.6
2023-05-10T09:15:01.201Z,22.6
2023-05-10T09:20:01.537Z,22.5
2023-05-10T09:25:01.443Z,22.6
2023-05-10T09:30:01.014Z,22.6
2023-05-10T09:35:01.095Z,22.6
2023-05-10T09:40:01.056Z,22.6
2023-05-10T09:45:01.184Z,22.6
2023-05-10T09:50:01.094Z,22.7
2023-05-10T09:55:01.015Z,22.7
2023-05-10T10:00:02.935Z,22.7
2023-05-10T10:05:01.087Z,22.7
2023-05-10T10:10:01.115Z,22.8
2023-05-10T10:15:01.129Z,22.8
2023-05-10T10:20:01.027Z,22.8
2023-05-10T10:25:01.043Z,22.8
2023-05-10T10:30:00.995Z,22.8
2023-05-10T10:35:01.306Z,22.9
2023-05-10T10:40:01.230Z,22.9
2023-05-10T10:45:01.189Z,22.9
2023-05-10T10:50:01.394Z,22.9
2023-05-10T10:55:01.372Z,22.9
2023-05-10T11:00:00.948Z,23.0
2023-05-10T11:05:01.282Z,23.0
2023-05-10T11:10:01.054Z,22.9
2023-05-10T11:15:01.252Z,23.0
2023-05-10T11:20:01.212Z,23.0
2023-05-10T11:25:00.970Z,23.0
2023-05-10T11:30:01.852Z,23.0
2023-05-10T11:35:01.122Z,23.0
2023-05-10T11:40:01.028Z,23.0
2023-05-10T11:45:01.302Z,23.1
2023-05-10T11:50:01.234Z,23.1
2023-05-10T11:55:01.024Z,23.1
2023-05-10T12:00:01.234Z,23.1
2023-05-10T12:05:01.186Z,23.1
2023-05-10T12:10:00.974Z,23.1
2023-05-10T12:15:01.012Z,23.1
2023-05-10T12:20:02.928Z,23.2
2023-05-10T12:25:01.027Z,23.2
2023-05-10T12:30:01.057Z,23.2
2023-05-10T12:35:01.122Z,23.2
2023-05-10T12:40:01.390Z,23.3
2023-05-10T12:45:01.393Z,23.3
2023-05-10T12:50:01.297Z,23.3
2023-05-10T12:55:01.004Z,23.3
2023-05-10T13:00:01.014Z,23.3
2023-05-10T13:05:01.049Z,23.4
2023-05-10T13:10:01.222Z,23.4
2023-05-10T13:15:01.394Z,23.4
2023-05-10T13:20:01.044Z,23.4
2023-05-10T13:25:01.093Z,23.5
2023-05-10T13:30:00.983Z,23.5
2023-05-10T13:35:01.053Z,23.5
2023-05-10T13:40:01.275Z,23.5
2023-05-10T13:45:01.503Z,23.5
2023-05-10T13:50:01.189Z,23.5
2023-05-10T13:55:01.169Z,23.6
2023-05-10T14:00:01.087Z,23.6
2023-05-10T14:05:01.521Z,23.7
2023-05-10T14:10:01.829Z,23.7
2023-05-10T14:15:01.036Z,23.7
2023-05-10T14:20:01.081Z,23.7
2023-05-10T14:25:01.066Z,23.8
2023-05-10T14:30:01.065Z,23.8
2023-05-10T14:35:01.587Z,23.8
2023-05-10T14:40:00.932Z,23.9
2023-05-10T14:45:00.847Z,23.9
2023-05-10T14:50:00.923Z,24.0
2023-05-10T14:55:01.101Z,23.9
2023-05-10T15:00:01.064Z,24.0
2023-05-10T15:05:01.844Z,24.0
2023-05-10T15:10:01.000Z,24.0
2023-05-10T15:15:01.137Z,24.0
2023-05-10T15:20:01.030Z,24.0
2023-05-10T15:25:01.460Z,24.0
2023-05-10T15:30:01.071Z,24.0
2023-05-10T15:35:00.783Z,24.0
2023-05-10T15:40:01.454Z,24.0
2023-05-10T15:45:01.632Z,24.0
2023-05-10T15:50:01.033Z,24.0
2023-05-10T15:55:01.109Z,24.0
2023-05-10T16:00:01.049Z,24.0
2023-05-10T16:05:01.682Z,24.0
2023-05-10T16:10:00.490Z,24.0
2023-05-10T16:15:01.126Z,24.0
2023-05-10T16:20:01.002Z,24.0
2023-05-10T16:25:00.990Z,24.0
2023-05-10T16:30:01.342Z,24.0
2023-05-10T16:35:01.221Z,24.0
2023-05-10T16:40:01.524Z,24.0
2023-05-10T16:45:01.132Z,24.1
2023-05-10T16:50:01.114Z,24.0
2023-05-10T16:55:01.118Z,24.1
2023-05-10T17:00:01.212Z,24.1
2023-05-10T17:05:01.015Z,24.1
2023-05-10T17:10:01.042Z,24.1
2023-05-10T17:15:01.008Z,24.1
2023-05-10T17:20:01.242Z,24.1
2023-05-10T17:25:01.567Z,24.1
2023-05-10T17:30:01.117Z,24.2
2023-05-10T17:35:01.767Z,24.2
2023-05-10T17:40:01.548Z,24.2
2023-05-10T17:45:01.159Z,24.2
2023-05-10T17:50:00.496Z,24.2
2023-05-10T17:55:01.960Z,24.2
2023-05-10T18:00:04.630Z,24.2
2023-05-10T18:05:01.328Z,24.2
2023-05-10T18:10:01.360Z,24.2
2023-05-10T18:15:01.658Z,24.2
2023-05-10T18:20:01.120Z,24.2
2023-05-10T18:25:00.983Z,24.2
2023-05-10T18:30:01.116Z,24.2
2023-05-10T18:35:01.295Z,24.2
2023-05-10T18:40:01.333Z,24.2
2023-05-10T18:45:01.030Z,24.2
2023-05-10T18:50:01.330Z,24.2
2023-05-10T18:55:01.045Z,24.2
2023-05-10T19:00:01.146Z,24.2
2023-05-10T19:05:02.791Z,24.3
2023-05-10T19:10:01.246Z,24.2
2023-05-10T19:15:01.155Z,24.2
2023-05-10T19:20:03.073Z,24.2
2023-05-10T19:25:01.065Z,24.3
2023-05-10T19:30:01.135Z,24.2
2023-05-10T19:35:01.138Z,24.2
2023-05-10T19:40:02.305Z,24.2
2023-05-10T19:45:01.254Z,24.3
2023-05-10T19:50:01.108Z,24.2
2023-05-10T19:55:01.033Z,24.2
2023-05-10T20:00:03.375Z,24.3
2023-05-10T20:05:01.352Z,24.2
2023-05-10T20:10:01.693Z,24.2
2023-05-10T20:15:01.069Z,24.2
2023-05-10T20:20:01.018Z,24.2
2023-05-10T20:25:01.010Z,24.2
2023-05-10T20:30:01.281Z,24.2
2023-05-10T20:35:01.110Z,24.2
2023-05-10T20:40:01.081Z,24.2
2023-05-10T20:45:01.740Z,24.2
2023-05-10T20:50:02.804Z,24.2
2023-05-10T20:55:01.002Z,24.2
2023-05-10T21:00:01.050Z,24.1
2023-05-10T21:05:01.345Z,24.1
2023-05-10T21:10:01.503Z,24.1
2023-05-10T21:15:01.367Z,24.1
2023-05-10T21:20:01.344Z,24.0
2023-05-10T21:25:01.084Z,24.0
2023-05-10T21:30:02.313Z,24.0
2023-05-10T21:35:01.051Z,24.0
2023-05-10T21:40:01.023Z,24.0
2023-05-10T21:45:01.281Z,24.0
2023-05-10T21:50:03.086Z,24.0
2023-05-10T21:55:01.076Z,24.0
2023-05-10T22:00:01.084Z,24.0
2023-05-10T22:05:01.347Z,24.0
2023-05-10T22:10:01.434Z,24.0
2023-05-10T22:15:10.157Z,24.0
2023-05-10T22:20:01.218Z,24.0
2023-05-10T22:25:01.070Z,24.0
2023-05-10T22:30:01.642Z,24.0
2023-05-10T22:35:01.025Z,24.0
2023-05-10T22:40:01.227Z,24.0
2023-05-10T22:45:01.056Z,24.0
2023-05-10T22:50:01.042Z,24.0
2023-05-10T22:55:01.369Z,24.0
2023-05-10T23:00:01.245Z,23.9
2023-05-10T23:05:01.183Z,23.9
2023-05-10T23:10:01.225Z,23.9
2023-05-10T23:15:03.120Z,23.9
2023-05-10T23:20:01.039Z,23.9
2023-05-10T23:25:01.006Z,23.8
2023-05-10T23:30:01.137Z,23.6
2023-05-10T23:35:01.270Z,23.5
2023-05-10T23:40:01.391Z,23.5
2023-05-10T23:45:01.717Z,23.3
2023-05-10T23:50:02.740Z,23.2
2023-05-10T23:55:01.097Z,23.1
